createdAt,value
2022-11-23T00:01:36.764Z,98313.59
2022-11-23T00:04:12.114Z,98308.22
2022-11-23T00:06:40.681Z,98309.38
2022-11-23T00:09:10.962Z,98313.59
2022-11-23T00:11:38.584Z,98302.50
2022-11-23T00:14:06.640Z,98303.66
2022-11-23T00:16:34.280Z,98310.94
2022-11-23T00:19:02.701Z,98300.56
2022-11-23T00:21:32.656Z,98303.25
2022-11-23T00:24:00.910Z,98307.47
2022-11-23T00:26:28.933Z,98312.81
2022-11-23T00:28:56.933Z,98320.88
2022-11-23T00:31:27.895Z,98317.03
2022-11-23T00:33:57.410Z,98317.06
2022-11-23T00:36:27.846Z,98323.91
2022-11-23T00:38:58.094Z,98313.22
2022-11-23T00:41:28.315Z,98308.22
2022-11-23T00:43:56.214Z,98323.53
2022-11-23T00:46:28.545Z,98323.94
2022-11-23T00:48:58.623Z,98332.72
2022-11-23T00:51:33.152Z,98334.97
2022-11-23T00:54:03.395Z,98328.88
2022-11-23T00:56:33.769Z,98340.34
2022-11-23T00:59:03.578Z,98343.44
2022-11-23T01:01:34.740Z,98331.94
2022-11-23T01:04:06.438Z,98331.94
2022-11-23T01:06:38.122Z,98332.72
2022-11-23T01:09:09.512Z,98335.78
2022-11-23T01:11:37.080Z,98327.38
2022-11-23T01:14:05.028Z,98333.47
2022-11-23T01:16:42.529Z,98336.94
2022-11-23T01:19:17.880Z,98329.66
2022-11-23T01:21:48.843Z,98340.78
2022-11-23T01:24:20.792Z,98343.81
2022-11-23T01:26:55.803Z,98339.63
2022-11-23T01:29:24.514Z,98330.41
2022-11-23T01:31:52.368Z,98343.44
2022-11-23T01:34:20.158Z,98331.19
2022-11-23T01:36:48.407Z,98338.84
2022-11-23T01:39:16.280Z,98342.69
2022-11-23T01:41:45.710Z,98330.03
2022-11-23T01:44:30.260Z,98338.06
2022-11-23T01:47:04.162Z,98351.09
2022-11-23T01:49:52.809Z,98352.59
2022-11-23T01:52:26.387Z,98331.94
2022-11-23T01:54:59.842Z,98337.69
2022-11-23T01:57:37.632Z,98339.59
2022-11-23T02:00:06.269Z,98326.19
2022-11-23T02:02:51.969Z,98332.34
2022-11-23T02:05:23.071Z,98326.56
2022-11-23T02:07:51.408Z,98333.84
2022-11-23T02:10:21.348Z,98342.25
2022-11-23T02:12:49.039Z,98349.53
2022-11-23T02:15:17.109Z,98352.59
2022-11-23T02:17:45.213Z,98359.06
2022-11-23T02:20:18.290Z,98355.63
2022-11-23T02:23:04.307Z,98364.44
2022-11-23T02:25:46.403Z,98368.63
2022-11-23T02:28:21.934Z,98371.69
2022-11-23T02:30:53.311Z,98372.44
2022-11-23T02:33:25.328Z,98383.53
2022-11-23T02:35:55.553Z,98389.25
2022-11-23T02:38:28.642Z,98391.91
2022-11-23T02:40:58.487Z,98390.00
2022-11-23T02:46:13.398Z,98386.53
2022-11-23T02:48:40.816Z,98384.63
2022-11-23T02:51:08.616Z,98379.25
2022-11-23T02:53:36.151Z,98385.72
2022-11-23T02:56:04.189Z,98389.94
2022-11-23T02:58:31.683Z,98386.47
2022-11-23T03:00:59.753Z,98382.66
2022-11-23T03:03:27.320Z,98390.66
2022-11-23T03:05:55.213Z,98386.81
2022-11-23T03:08:22.943Z,98395.22
2022-11-23T03:10:50.970Z,98379.94
2022-11-23T03:13:19.867Z,98373.81
2022-11-23T03:15:48.206Z,98366.53
2022-11-23T03:18:15.703Z,98360.00
2022-11-23T03:20:44.360Z,98358.09
2022-11-23T03:23:11.854Z,98357.00
2022-11-23T03:25:40.703Z,98366.94
2022-11-23T03:28:09.299Z,98369.97
2022-11-23T03:30:38.073Z,98374.19
2022-11-23T03:33:07.459Z,98370.00
2022-11-23T03:35:38.168Z,98370.00
2022-11-23T03:38:19.253Z,98374.63
2022-11-23T03:40:47.672Z,98373.06
2022-11-23T03:43:26.402Z,98372.31
2022-11-23T03:45:54.650Z,98373.09
2022-11-23T03:48:23.396Z,98384.94
2022-11-23T03:50:52.558Z,98377.69
2022-11-23T03:53:21.329Z,98384.59
2022-11-23T03:55:49.414Z,98388.41
2022-11-23T03:58:17.036Z,98387.28
2022-11-23T04:00:45.105Z,98396.81
2022-11-23T04:03:15.373Z,98389.97
2022-11-23T04:06:01.878Z,98392.28
2022-11-23T04:08:48.017Z,98391.88
2022-11-23T04:11:23.527Z,98389.59
2022-11-23T04:13:51.412Z,98409.09
2022-11-23T04:16:21.018Z,98394.56
2022-11-23T04:18:49.235Z,98390.34
2022-11-23T04:21:17.976Z,98393.78
2022-11-23T04:23:45.599Z,98393.03
2022-11-23T04:26:15.913Z,98388.06
2022-11-23T04:28:46.682Z,98383.16
2022-11-23T04:31:15.054Z,98388.91
2022-11-23T04:33:52.549Z,98394.63
2022-11-23T04:36:21.964Z,98393.84
2022-11-23T04:38:50.246Z,98399.16
2022-11-23T04:41:23.909Z,98406.03
2022-11-23T04:43:51.996Z,98390.72
2022-11-23T04:46:20.261Z,98381.53
2022-11-23T04:48:47.986Z,98383.06
2022-11-23T04:51:17.813Z,98387.66
2022-11-23T04:53:45.494Z,98389.97
2022-11-23T04:56:14.594Z,98394.19
2022-11-23T04:58:43.810Z,98393.81
2022-11-23T05:01:12.338Z,98399.56
2022-11-23T05:04:00.043Z,98403.38
2022-11-23T05:06:28.844Z,98403.75
2022-11-23T05:08:56.338Z,98413.72
2022-11-23T05:11:47.142Z,98412.97
2022-11-23T05:14:14.895Z,98406.16
2022-11-23T05:16:42.984Z,98416.19
2022-11-23T05:19:10.647Z,98404.72
2022-11-23T05:21:38.603Z,98417.78
2022-11-23T05:24:06.584Z,98417.75
2022-11-23T05:26:34.619Z,98412.38
2022-11-23T05:29:02.157Z,98422.34
2022-11-23T05:31:30.054Z,98424.25
2022-11-23T05:33:58.250Z,98425.38
2022-11-23T05:36:42.124Z,98423.81
2022-11-23T05:39:10.349Z,98417.28
2022-11-23T05:41:39.600Z,98416.50
2022-11-23T05:44:19.297Z,98419.56
2022-11-23T05:46:47.473Z,98418.41
2022-11-23T05:49:15.856Z,98424.50
2022-11-23T05:51:44.443Z,98423.72
2022-11-23T05:54:12.280Z,98421.03
2022-11-23T05:56:44.869Z,98430.22
2022-11-23T05:59:19.189Z,98428.66
2022-11-23T06:01:52.473Z,98441.28
2022-11-23T06:04:28.645Z,98447.41
2022-11-23T06:07:01.224Z,98447.00
2022-11-23T06:09:38.049Z,98454.28
2022-11-23T06:12:09.630Z,98448.91
2022-11-23T06:14:37.285Z,98450.47
2022-11-23T06:17:05.382Z,98458.88
2022-11-23T06:19:37.745Z,98467.28
2022-11-23T06:22:07.052Z,98460.44
2022-11-23T06:24:42.626Z,98463.88
2022-11-23T06:27:31.155Z,98471.91
2022-11-23T06:29:59.918Z,98474.56
2022-11-23T06:32:29.477Z,98477.63
2022-11-23T06:35:00.716Z,98481.44
2022-11-23T06:37:31.806Z,98486.41
2022-11-23T06:39:59.401Z,98481.03
2022-11-23T06:42:42.836Z,98485.66
2022-11-23T06:45:33.285Z,98480.31
2022-11-23T06:48:06.359Z,98474.97
2022-11-23T06:50:40.968Z,98478.81
2022-11-23T06:53:12.565Z,98475.78
2022-11-23T06:55:48.336Z,98477.69
2022-11-23T06:58:19.243Z,98474.25
2022-11-23T07:00:47.072Z,98473.50
2022-11-23T07:03:25.020Z,98474.69
2022-11-23T07:06:04.333Z,98473.56
2022-11-23T07:08:32.319Z,98469.00
2022-11-23T07:11:07.439Z,98476.28
2022-11-23T07:13:35.370Z,98487.00
2022-11-23T07:16:03.068Z,98488.56
2022-11-23T07:18:31.663Z,98488.56
2022-11-23T07:21:01.552Z,98491.63
2022-11-23T07:23:29.688Z,98494.31
2022-11-23T07:25:57.192Z,98490.50
2022-11-23T07:28:25.015Z,98490.88
2022-11-23T07:30:52.852Z,98492.00
2022-11-23T07:33:22.235Z,98486.25
2022-11-23T07:35:50.326Z,98491.25
2022-11-23T07:38:18.158Z,98497.38
2022-11-23T07:40:50.447Z,98501.22
2022-11-23T07:43:53.964Z,98495.09
2022-11-23T07:46:21.820Z,98492.81
2022-11-23T07:48:49.734Z,98496.63
2022-11-23T07:51:19.627Z,98492.06
2022-11-23T07:53:47.833Z,98498.59
2022-11-23T07:56:15.274Z,98492.06
2022-11-23T07:58:43.126Z,98500.53
2022-11-23T08:01:14.548Z,98500.91
2022-11-23T08:03:42.462Z,98498.97
2022-11-23T08:06:11.603Z,98499.75
2022-11-23T08:08:39.523Z,98513.56
2022-11-23T08:11:09.234Z,98505.50
2022-11-23T08:13:40.342Z,98508.56
2022-11-23T08:16:07.957Z,98504.34
2022-11-23T08:18:36.445Z,98513.56
2022-11-23T08:21:04.912Z,98520.44
2022-11-23T08:23:32.981Z,98514.31
2022-11-23T08:26:07.849Z,98511.63
2022-11-23T08:28:40.082Z,98520.44
2022-11-23T08:31:11.731Z,98521.22
2022-11-23T08:33:40.517Z,98512.38
2022-11-23T08:36:08.887Z,98518.16
2022-11-23T08:38:36.804Z,98527.34
2022-11-23T08:41:05.643Z,98508.94
2022-11-23T08:43:34.397Z,98524.28
2022-11-23T08:46:06.803Z,98519.69
2022-11-23T08:48:37.355Z,98511.63
2022-11-23T08:51:05.114Z,98516.63
2022-11-23T08:53:33.302Z,98514.31
2022-11-23T08:56:02.900Z,98507.44
2022-11-23T08:58:31.770Z,98518.16
2022-11-23T09:00:59.469Z,98520.44
2022-11-23T09:03:27.251Z,98512.81
2022-11-23T09:06:00.714Z,98518.13
2022-11-23T09:08:29.658Z,98515.06
2022-11-23T09:11:10.533Z,98513.16
2022-11-23T09:13:39.403Z,98519.28
2022-11-23T09:16:08.425Z,98519.69
2022-11-23T09:18:36.809Z,98510.88
2022-11-23T09:21:06.094Z,98526.97
2022-11-23T09:23:34.508Z,98514.69
2022-11-23T09:26:04.682Z,98525.81
2022-11-23T09:28:33.357Z,98564.13
2022-11-23T09:31:04.807Z,98576.75
2022-11-23T09:33:32.690Z,98584.03
2022-11-23T09:36:02.904Z,98570.25
2022-11-23T09:38:55.783Z,98574.84
2022-11-23T09:41:55.492Z,98585.19
2022-11-23T09:44:57.371Z,98588.28
2022-11-23T09:47:37.282Z,98591.75
2022-11-23T09:50:07.753Z,98585.63
2022-11-23T09:52:48.181Z,98589.09
2022-11-23T09:55:43.812Z,98590.63
2022-11-23T09:58:21.205Z,98575.69
2022-11-23T10:01:07.589Z,98583.34
2022-11-23T10:03:48.253Z,98591.78
2022-11-23T10:06:23.488Z,98597.50
2022-11-23T10:09:29.612Z,98591.72
2022-11-23T10:12:10.091Z,98597.09
2022-11-23T10:14:59.695Z,98600.16
2022-11-23T10:17:51.053Z,98608.59
2022-11-23T10:20:55.567Z,98607.06
2022-11-23T10:23:42.302Z,98602.44
2022-11-23T10:26:32.623Z,98620.38
2022-11-23T10:29:20.060Z,98609.66
2022-11-23T10:31:54.104Z,98614.63
2022-11-23T10:34:55.667Z,98611.16
2022-11-23T10:37:23.360Z,98610.38
2022-11-23T10:39:51.262Z,98613.84
2022-11-23T10:42:38.690Z,98618.44
2022-11-23T10:45:18.420Z,98619.94
2022-11-23T10:48:00.358Z,98622.25
2022-11-23T10:50:32.395Z,98625.72
2022-11-23T10:53:20.387Z,98641.38
2022-11-23T10:55:53.778Z,98632.09
2022-11-23T10:58:35.108Z,98632.78
2022-11-23T11:01:13.725Z,98645.03
2022-11-23T11:03:41.619Z,98652.63
2022-11-23T11:06:11.526Z,98656.09
2022-11-23T11:09:02.604Z,98668.63
2022-11-23T11:11:35.439Z,98667.06
2022-11-23T11:14:19.978Z,98661.22
2022-11-23T11:16:53.933Z,98665.44
2022-11-23T11:19:36.049Z,98661.25
2022-11-23T11:22:35.609Z,98666.88
2022-11-23T11:25:06.318Z,98664.59
2022-11-23T11:27:34.945Z,98668.44
2022-11-23T11:30:22.479Z,98667.31
2022-11-23T11:33:18.118Z,98670.00
2022-11-23T11:35:52.012Z,98670.09
2022-11-23T11:38:33.814Z,98670.53
2022-11-23T11:41:13.544Z,98677.47
2022-11-23T11:43:58.463Z,98673.31
2022-11-23T11:46:40.508Z,98668.34
2022-11-23T11:49:12.745Z,98667.63
2022-11-23T11:51:52.740Z,98671.06
2022-11-23T11:54:33.468Z,98675.19
2022-11-23T11:57:17.224Z,98671.72
2022-11-23T11:59:50.228Z,98673.66
2022-11-23T12:02:28.925Z,98667.16
2022-11-23T12:05:16.774Z,98679.00
2022-11-23T12:08:13.029Z,98677.81
2022-11-23T12:10:54.439Z,98675.88
2022-11-23T12:13:26.065Z,98689.25
2022-11-23T12:16:28.023Z,98685.44
2022-11-23T12:19:09.527Z,98692.34
2022-11-23T12:21:56.151Z,98687.38
2022-11-23T12:24:57.609Z,98691.97
2022-11-23T12:27:46.602Z,98703.00
2022-11-23T12:30:42.891Z,98699.06
2022-11-23T12:33:19.478Z,98708.97
2022-11-23T12:36:06.265Z,98706.69
2022-11-23T12:39:13.871Z,98726.94
2022-11-23T12:41:53.219Z,98718.84
2022-11-23T12:45:00.413Z,98720.78
2022-11-23T12:47:59.527Z,98732.94
2022-11-23T12:50:55.136Z,98729.16
2022-11-23T12:53:43.229Z,98731.72
2022-11-23T12:56:38.517Z,98740.91
2022-11-23T12:59:11.216Z,98739.59
2022-11-23T13:01:47.140Z,98742.31
2022-11-23T13:04:32.904Z,98750.38
2022-11-23T13:07:32.819Z,98745.34
2022-11-23T13:10:19.953Z,98754.97
2022-11-23T13:13:02.401Z,98760.25
2022-11-23T13:16:10.512Z,98742.66
2022-11-23T13:19:20.645Z,98751.91
2022-11-23T13:21:48.790Z,98750.53
2022-11-23T13:24:58.642Z,98763.56
2022-11-23T13:27:31.936Z,98759.75
2022-11-23T13:30:21.542Z,98776.19
2022-11-23T13:33:22.284Z,98771.66
2022-11-23T13:35:59.991Z,98791.97
2022-11-23T13:38:40.903Z,98789.47
2022-11-23T13:41:40.030Z,98799.66
2022-11-23T13:44:19.368Z,98815.19
2022-11-23T13:47:27.275Z,98805.50
2022-11-23T13:50:17.539Z,98818.47
2022-11-23T13:52:50.993Z,98817.31
2022-11-23T13:55:23.105Z,98832.47
2022-11-23T13:58:26.518Z,98836.50
2022-11-23T14:00:56.498Z,98836.75
2022-11-23T14:03:45.534Z,98841.53
2022-11-23T14:06:41.701Z,98862.13
2022-11-23T14:09:26.081Z,98851.47
2022-11-23T14:12:05.068Z,98861.25
2022-11-23T14:14:51.023Z,98842.66
2022-11-23T14:17:46.740Z,98845.56
2022-11-23T14:20:49.882Z,98851.38
2022-11-23T14:23:21.374Z,98855.66
2022-11-23T14:26:25.904Z,98860.81
2022-11-23T14:29:33.499Z,98863.03
2022-11-23T14:32:22.718Z,98859.31
2022-11-23T14:35:20.552Z,98860.88
2022-11-23T14:38:33.418Z,98865.66
2022-11-23T14:41:16.690Z,98877.47
2022-11-23T14:43:46.878Z,98872.81
2022-11-23T14:46:21.355Z,98874.16
2022-11-23T14:48:50.389Z,98878.44
2022-11-23T14:51:28.312Z,98871.41
2022-11-23T14:54:01.560Z,98874.81
2022-11-23T14:56:46.336Z,98882.03
2022-11-23T14:59:37.821Z,98886.09
2022-11-23T15:02:53.130Z,98887.50
2022-11-23T15:05:29.866Z,98899.09
2022-11-23T15:08:12.097Z,98904.03
2022-11-23T15:10:52.392Z,98910.41
2022-11-23T15:13:27.298Z,98904.50
2022-11-23T15:15:57.685Z,98899.56
2022-11-23T15:18:37.913Z,98902.50
2022-11-23T15:21:11.121Z,98909.91
2022-11-23T15:23:55.071Z,98906.63
2022-11-23T15:26:48.962Z,98915.50
2022-11-23T15:29:54.419Z,98909.22
2022-11-23T15:32:31.593Z,98918.38
2022-11-23T15:35:06.937Z,98913.69
2022-11-23T15:37:47.613Z,98928.91
2022-11-23T15:40:17.989Z,98922.28
2022-11-23T15:42:50.161Z,98928.50
2022-11-23T15:45:39.585Z,98932.63
2022-11-23T15:48:22.859Z,98927.81
2022-11-23T15:50:56.252Z,98927.06
2022-11-23T15:53:49.922Z,98943.81
2022-11-23T15:56:32.149Z,98941.50
2022-11-23T15:59:19.781Z,98955.69
2022-11-23T16:01:47.541Z,98969.72
2022-11-23T16:04:39.521Z,98963.63
2022-11-23T16:07:24.634Z,98971.69
2022-11-23T16:10:07.471Z,98977.72
2022-11-23T16:12:54.622Z,98979.53
2022-11-23T16:15:34.516Z,98975.91
2022-11-23T16:18:06.945Z,98982.78
2022-11-23T16:20:35.092Z,98982.09
2022-11-23T16:23:02.740Z,98994.31
2022-11-23T16:25:34.029Z,98981.34
2022-11-23T16:28:17.893Z,98993.78
2022-11-23T16:30:49.083Z,98996.09
2022-11-23T16:33:19.778Z,98994.84
2022-11-23T16:35:48.272Z,98996.25
2022-11-23T16:38:16.416Z,98998.16
2022-11-23T16:40:45.308Z,99001.16
2022-11-23T16:43:14.571Z,98989.63
2022-11-23T16:45:48.831Z,98992.84
2022-11-23T16:48:25.470Z,98994.38
2022-11-23T16:50:57.805Z,98999.59
2022-11-23T16:53:27.060Z,99001.06
2022-11-23T16:55:56.769Z,98999.09
2022-11-23T16:58:25.894Z,99003.84
2022-11-23T17:00:54.227Z,99010.22
2022-11-23T17:03:22.240Z,99017.59
2022-11-23T17:05:50.377Z,99014.97
2022-11-23T17:08:23.311Z,99023.22
2022-11-23T17:10:52.375Z,99025.97
2022-11-23T17:13:27.329Z,99029.91
2022-11-23T17:15:55.974Z,99029.16
2022-11-23T17:18:23.432Z,99026.34
2022-11-23T17:20:51.255Z,99040.47
2022-11-23T17:23:18.882Z,99033.53
2022-11-23T17:25:46.695Z,99051.16
2022-11-23T17:28:21.788Z,99063.38
2022-11-23T17:30:51.048Z,99048.69
2022-11-23T17:33:18.773Z,99049.97
2022-11-23T17:35:47.085Z,99050.06
2022-11-23T17:38:23.516Z,99055.06
2022-11-23T17:40:51.483Z,99055.56
2022-11-23T17:43:20.136Z,99052.22
2022-11-23T17:45:48.486Z,99057.31
2022-11-23T17:48:17.279Z,99065.06
2022-11-23T17:50:47.447Z,99065.06
2022-11-23T17:53:15.082Z,99075.09
2022-11-23T17:55:42.945Z,99076.25
2022-11-23T17:58:12.041Z,99070.59
2022-11-23T18:00:39.999Z,99075.25
2022-11-23T18:03:07.803Z,99079.06
2022-11-23T18:05:36.063Z,99080.50
2022-11-23T18:08:03.775Z,99072.94
2022-11-23T18:10:31.601Z,99075.16
2022-11-23T18:12:59.311Z,99079.72
2022-11-23T18:15:27.498Z,99085.63
2022-11-23T18:17:57.851Z,99079.34
2022-11-23T18:20:28.068Z,99078.56
2022-11-23T18:22:55.547Z,99081.47
2022-11-23T18:25:23.566Z,99080.78
2022-11-23T18:27:51.069Z,99087.47
2022-11-23T18:30:19.634Z,99077.25
2022-11-23T18:32:47.300Z,99080.13
2022-11-23T18:35:15.404Z,99088.88
2022-11-23T18:37:43.806Z,99085.31
2022-11-23T18:40:13.417Z,99081.38
2022-11-23T18:42:41.015Z,99092.53
2022-11-23T18:45:09.315Z,99105.53
2022-11-23T18:47:37.717Z,99095.56
2022-11-23T18:50:06.991Z,99102.13
2022-11-23T18:52:35.005Z,99094.25
2022-11-23T18:55:03.510Z,99109.53
2022-11-23T18:57:31.085Z,99098.56
2022-11-23T18:59:59.196Z,99110.88
2022-11-23T19:02:27.116Z,99103.22
2022-11-23T19:04:54.947Z,99107.75
2022-11-23T19:07:26.854Z,99110.41
2022-11-23T19:09:55.223Z,99115.19
2022-11-23T19:12:22.788Z,99112.06
2022-11-23T19:14:50.704Z,99118.19
2022-11-23T19:17:18.293Z,99119.63
2022-11-23T19:19:46.202Z,99105.78
2022-11-23T19:22:13.712Z,99108.53
2022-11-23T19:24:41.624Z,99117.63
2022-11-23T19:27:09.226Z,99131.16
2022-11-23T19:29:37.353Z,99113.41
2022-11-23T19:32:05.576Z,99124.38
2022-11-23T19:34:34.012Z,99126.81
2022-11-23T19:37:01.974Z,99134.03
2022-11-23T19:39:30.221Z,99131.72
2022-11-23T19:41:58.086Z,99131.06
2022-11-23T19:44:26.049Z,99153.00
2022-11-23T19:46:53.741Z,99146.69
2022-11-23T19:49:21.630Z,99139.56
2022-11-23T19:51:52.371Z,99143.78
2022-11-23T19:54:20.276Z,99155.41
2022-11-23T19:56:50.848Z,99156.31
2022-11-23T19:59:19.018Z,99154.50
2022-11-23T20:01:46.818Z,99150.41
2022-11-23T20:04:15.120Z,99164.16
2022-11-23T20:06:43.957Z,99168.84
2022-11-23T20:09:27.730Z,99170.53
2022-11-23T20:11:55.432Z,99165.00
2022-11-23T20:14:23.564Z,99177.84
2022-11-23T20:16:51.284Z,99198.59
2022-11-23T20:19:19.263Z,99178.41
2022-11-23T20:21:46.852Z,99199.69
2022-11-23T20:24:15.141Z,99175.00
2022-11-23T20:26:43.522Z,99200.84
2022-11-23T20:29:13.811Z,99196.59
2022-11-23T20:31:41.829Z,99201.91
2022-11-23T20:34:15.411Z,99185.19
2022-11-23T20:36:46.039Z,99207.66
2022-11-23T20:39:16.209Z,99202.91
2022-11-23T20:41:45.145Z,99210.78
2022-11-23T20:44:15.529Z,99206.91
2022-11-23T20:49:32.827Z,99221.25
2022-11-23T20:52:02.015Z,99239.72
2022-11-23T20:54:30.092Z,99247.59
2022-11-23T20:57:00.302Z,99233.41
2022-11-23T20:59:28.891Z,99226.88
2022-11-23T21:01:56.888Z,99236.41
2022-11-23T21:04:25.053Z,99226.59
2022-11-23T21:06:52.694Z,99230.00
2022-11-23T21:09:21.970Z,99241.66
2022-11-23T21:12:08.322Z,99232.09
2022-11-23T21:14:37.122Z,99235.91
2022-11-23T21:17:05.594Z,99235.03
2022-11-23T21:19:37.593Z,99242.34
2022-11-23T21:22:13.534Z,99241.72
2022-11-23T21:24:42.087Z,99239.06
2022-11-23T21:27:14.507Z,99244.81
2022-11-23T21:29:44.974Z,99242.59
2022-11-23T21:32:14.841Z,99245.00
2022-11-23T21:34:43.357Z,99252.34
2022-11-23T21:37:12.758Z,99250.69
2022-11-23T21:39:41.547Z,99257.13
2022-11-23T21:42:09.432Z,99259.22
2022-11-23T21:44:38.184Z,99258.72
2022-11-23T21:47:05.762Z,99254.72
2022-11-23T21:49:33.765Z,99247.19
2022-11-23T21:52:01.336Z,99262.88
2022-11-23T21:54:30.843Z,99263.22
2022-11-23T21:56:58.615Z,99275.09
2022-11-23T21:59:26.492Z,99263.34
2022-11-23T22:01:57.244Z,99266.59
2022-11-23T22:04:25.608Z,99273.47
2022-11-23T22:06:56.132Z,99271.72
2022-11-23T22:09:24.230Z,99270.59
2022-11-23T22:11:53.453Z,99279.81
2022-11-23T22:14:22.100Z,99276.28
2022-11-23T22:16:50.368Z,99280.16
2022-11-23T22:19:19.001Z,99283.94
2022-11-23T22:21:47.021Z,99280.28
2022-11-23T22:24:18.382Z,99275.06
2022-11-23T22:26:47.931Z,99283.22
2022-11-23T22:29:16.606Z,99280.72
2022-11-23T22:31:44.510Z,99268.72
2022-11-23T22:34:14.305Z,99278.69
2022-11-23T22:36:44.590Z,99281.34
2022-11-23T22:39:13.541Z,99281.94
2022-11-23T22:41:41.389Z,99281.31
2022-11-23T22:44:14.597Z,99290.50
2022-11-23T22:50:13.458Z,99284.81
2022-11-23T22:52:50.144Z,99284.16
2022-11-23T22:55:26.606Z,99279.22
2022-11-23T22:58:01.501Z,99293.34
2022-11-23T23:00:37.028Z,99284.81
2022-11-23T23:03:12.441Z,99294.94
2022-11-23T23:05:57.032Z,99287.19
2022-11-23T23:08:29.287Z,99290.78
2022-11-23T23:11:05.841Z,99282.56
2022-11-23T23:13:34.850Z,99296.75
2022-11-23T23:16:06.825Z,99294.09
2022-11-23T23:18:34.699Z,99300.19
2022-11-23T23:21:11.118Z,99298.00
2022-11-23T23:23:42.172Z,99286.88
2022-11-23T23:26:13.689Z,99295.66
2022-11-23T23:28:41.898Z,99293.31
2022-11-23T23:31:14.194Z,99300.31
2022-11-23T23:33:43.461Z,99300.31
2022-11-23T23:36:14.975Z,99297.44
2022-11-23T23:38:43.529Z,99292.91
2022-11-23T23:41:14.049Z,99310.00
2022-11-23T23:43:43.057Z,99303.47
2022-11-23T23:46:13.644Z,99307.22
2022-11-23T23:48:41.706Z,99315.13
2022-11-23T23:51:24.537Z,99304.56
2022-11-23T23:53:53.171Z,99310.41
2022-11-23T23:56:30.312Z,99306.44
2022-11-23T23:59:00.171Z,99315.22
